createdAt,value
2023-04-07T00:00:59.937Z,27.67
2023-04-07T00:04:02.810Z,35.67
2023-04-07T00:07:05.960Z,18.33
2023-04-07T00:10:08.811Z,35.00
2023-04-07T00:13:12.663Z,31.00
2023-04-07T00:16:15.315Z,32.33
2023-04-07T00:19:18.101Z,33.33
2023-04-07T00:22:20.572Z,33.00
2023-04-07T00:25:23.287Z,31.00
2023-04-07T00:28:25.972Z,28.33
2023-04-07T00:31:28.808Z,28.33
2023-04-07T00:34:31.369Z,30.67
2023-04-07T00:37:34.138Z,33.00
2023-04-07T00:40:36.880Z,31.33
2023-04-07T00:43:39.610Z,28.00
2023-04-07T00:46:42.043Z,30.00
2023-04-07T00:49:44.933Z,29.00
2023-04-07T00:52:47.386Z,30.67
2023-04-07T00:55:50.108Z,30.33
2023-04-07T00:58:52.752Z,23.67
2023-04-07T01:02:18.553Z,29.33
2023-04-07T01:05:35.214Z,26.33
2023-04-07T01:09:02.481Z,27.67
2023-04-07T01:12:13.440Z,30.00
2023-04-07T01:15:20.593Z,37.00
2023-04-07T01:18:33.121Z,32.33
2023-04-07T01:21:37.545Z,35.67
2023-04-07T01:25:11.677Z,26.67
2023-04-07T01:28:23.431Z,30.67
2023-04-07T01:31:27.051Z,28.33
2023-04-07T01:34:32.348Z,33.33
2023-04-07T01:37:35.087Z,32.00
2023-04-07T01:40:40.094Z,32.67
2023-04-07T01:43:44.462Z,30.67
2023-04-07T01:46:51.325Z,35.00
2023-04-07T01:49:54.662Z,36.33
2023-04-07T01:52:58.046Z,29.33
2023-04-07T01:56:00.584Z,33.33
2023-04-07T01:59:03.370Z,39.00
2023-04-07T02:02:06.252Z,32.33
2023-04-07T02:05:13.739Z,33.33
2023-04-07T02:08:20.758Z,39.67
2023-04-07T02:11:24.897Z,32.00
2023-04-07T02:14:30.114Z,38.00
2023-04-07T02:17:41.145Z,41.00
2023-04-07T02:20:44.551Z,40.00
2023-04-07T02:23:47.906Z,32.67
2023-04-07T02:26:52.902Z,40.33
2023-04-07T02:29:55.772Z,42.00
2023-04-07T02:32:59.344Z,41.33
2023-04-07T02:36:02.144Z,37.33
2023-04-07T02:39:04.613Z,42.00
2023-04-07T02:42:07.345Z,45.00
2023-04-07T02:45:12.756Z,43.67
2023-04-07T02:48:15.626Z,45.00
2023-04-07T02:51:18.733Z,46.00
2023-04-07T02:54:21.584Z,44.33
2023-04-07T02:57:24.019Z,46.00
2023-04-07T03:00:29.967Z,44.00
2023-04-07T03:03:39.678Z,44.33
2023-04-07T03:06:49.414Z,46.00
2023-04-07T03:09:52.044Z,44.00
2023-04-07T03:12:55.069Z,46.00
2023-04-07T03:15:58.471Z,46.00
2023-04-07T03:19:06.305Z,44.67
2023-04-07T03:22:12.700Z,46.67
2023-04-07T03:25:23.250Z,43.67
2023-04-07T03:28:28.116Z,43.33
2023-04-07T03:31:30.873Z,45.00
2023-04-07T03:34:34.832Z,43.67
2023-04-07T03:37:37.804Z,41.33
2023-04-07T03:40:42.701Z,44.00
2023-04-07T03:43:45.623Z,48.33
2023-04-07T03:46:50.793Z,43.33
2023-04-07T03:49:55.713Z,44.67
2023-04-07T03:52:58.738Z,36.67
2023-04-07T03:56:05.288Z,42.33
2023-04-07T03:59:37.064Z,41.33
2023-04-07T04:02:41.982Z,44.00
2023-04-07T04:05:46.686Z,44.67
2023-04-07T04:08:54.511Z,34.00
2023-04-07T04:11:58.758Z,44.00
2023-04-07T04:15:01.912Z,41.00
2023-04-07T04:18:05.358Z,45.33
2023-04-07T04:21:09.496Z,44.67
2023-04-07T04:24:16.472Z,44.00
2023-04-07T04:27:21.502Z,43.67
2023-04-07T04:30:29.500Z,48.33
2023-04-07T04:33:37.225Z,45.33
2023-04-07T04:36:41.319Z,44.33
2023-04-07T04:39:44.231Z,47.33
2023-04-07T04:42:49.426Z,47.00
2023-04-07T04:45:52.752Z,45.67
2023-04-07T04:48:59.701Z,48.00
2023-04-07T04:52:02.665Z,54.33
2023-04-07T04:55:10.620Z,47.67
2023-04-07T04:58:15.672Z,46.67
2023-04-07T05:01:23.064Z,48.00
2023-04-07T05:04:37.614Z,43.33
2023-04-07T05:07:53.087Z,45.00
2023-04-07T05:10:57.682Z,48.00
2023-04-07T05:14:02.889Z,49.00
2023-04-07T05:17:06.446Z,48.00
2023-04-07T05:20:10.303Z,41.33
2023-04-07T05:23:16.246Z,48.00
2023-04-07T05:26:21.882Z,47.67
2023-04-07T05:29:26.152Z,48.67
2023-04-07T05:32:29.963Z,48.67
2023-04-07T05:35:34.823Z,45.33
2023-04-07T05:38:37.212Z,47.67
2023-04-07T05:41:46.988Z,44.00
2023-04-07T05:44:51.071Z,44.00
2023-04-07T05:47:56.501Z,46.67
2023-04-07T05:51:06.884Z,45.33
2023-04-07T05:54:09.821Z,49.00
2023-04-07T05:57:12.486Z,45.33
2023-04-07T06:00:20.322Z,52.00
2023-04-07T06:03:32.524Z,52.00
2023-04-07T06:07:08.593Z,48.33
2023-04-07T06:10:11.294Z,45.00
2023-04-07T06:13:14.256Z,43.67
2023-04-07T06:16:19.428Z,45.00
2023-04-07T06:19:22.414Z,45.00
2023-04-07T06:22:24.825Z,47.33
2023-04-07T06:25:27.937Z,47.00
2023-04-07T06:28:30.573Z,48.33
2023-04-07T06:31:34.949Z,45.00
2023-04-07T06:34:37.408Z,49.00
2023-04-07T06:37:40.657Z,48.00
2023-04-07T06:40:43.045Z,48.67
2023-04-07T06:43:48.240Z,47.33
2023-04-07T06:46:53.502Z,43.67
2023-04-07T06:49:56.309Z,43.00
2023-04-07T06:52:58.673Z,44.67
2023-04-07T06:56:05.386Z,39.33
2023-04-07T06:59:07.999Z,44.00
2023-04-07T07:02:10.940Z,40.00
2023-04-07T07:05:13.495Z,40.67
2023-04-07T07:08:16.865Z,42.00
2023-04-07T07:11:19.302Z,40.33
2023-04-07T07:14:22.049Z,44.67
2023-04-07T07:17:24.400Z,44.00
2023-04-07T07:20:27.887Z,45.00
2023-04-07T07:23:30.329Z,40.25
2023-04-07T07:26:33.010Z,39.00
2023-04-07T07:29:35.516Z,41.50
2023-04-07T07:32:38.426Z,42.00
2023-04-07T07:35:40.930Z,39.50
2023-04-07T07:38:43.708Z,42.25
2023-04-07T07:41:47.019Z,41.75
2023-04-07T07:44:49.777Z,40.75
2023-04-07T07:47:52.258Z,42.75
2023-04-07T07:50:57.123Z,40.25
2023-04-07T07:53:59.500Z,43.00
2023-04-07T07:57:03.352Z,42.00
2023-04-07T08:00:06.646Z,38.25
2023-04-07T08:03:17.194Z,42.75
2023-04-07T08:06:19.580Z,39.00
2023-04-07T08:09:22.501Z,42.50
2023-04-07T08:12:24.871Z,36.75
2023-04-07T08:15:27.606Z,38.75
2023-04-07T08:18:29.981Z,40.00
2023-04-07T08:21:33.007Z,36.00
2023-04-07T08:24:35.559Z,39.00
2023-04-07T08:27:39.513Z,39.50
2023-04-07T08:30:41.894Z,37.75
2023-04-07T08:33:45.050Z,40.75
2023-04-07T08:36:47.761Z,42.50
2023-04-07T08:39:50.608Z,41.50
2023-04-07T08:42:53.566Z,36.00
2023-04-07T08:45:57.937Z,38.25
2023-04-07T08:49:01.646Z,39.50
2023-04-07T08:52:08.548Z,38.50
2023-04-07T08:55:12.303Z,39.00
2023-04-07T08:58:16.456Z,34.00
2023-04-07T09:01:20.096Z,38.25
2023-04-07T09:04:27.765Z,37.25
2023-04-07T09:07:32.729Z,40.25
2023-04-07T09:10:36.986Z,38.00
2023-04-07T09:13:40.808Z,31.75
2023-04-07T09:16:44.587Z,37.50
2023-04-07T09:19:48.165Z,34.75
2023-04-07T09:22:51.092Z,36.75
2023-04-07T09:25:53.707Z,39.00
2023-04-07T09:29:01.899Z,38.00
2023-04-07T09:32:04.387Z,22.50
2023-04-07T09:35:08.156Z,39.00
2023-04-07T09:38:10.890Z,36.00
2023-04-07T09:41:17.299Z,39.00
2023-04-07T09:44:20.613Z,39.25
2023-04-07T09:47:29.475Z,37.00
2023-04-07T09:50:37.105Z,40.00
2023-04-07T09:53:52.843Z,39.50
2023-04-07T09:56:56.034Z,40.00
2023-04-07T09:59:59.334Z,37.25
2023-04-07T10:03:02.039Z,35.75
2023-04-07T10:06:09.118Z,37.50
2023-04-07T10:09:11.895Z,35.75
2023-04-07T10:12:15.313Z,36.75
2023-04-07T10:15:17.985Z,37.75
2023-04-07T10:18:26.484Z,36.75
2023-04-07T10:21:29.962Z,35.50
2023-04-07T10:24:57.872Z,36.75
2023-04-07T10:28:05.623Z,36.75
2023-04-07T10:31:09.258Z,37.25
2023-04-07T10:34:11.699Z,36.00
2023-04-07T10:37:17.947Z,40.00
2023-04-07T10:40:20.298Z,38.75
2023-04-07T10:43:41.030Z,35.25
2023-04-07T10:46:46.900Z,37.50
2023-04-07T10:50:18.926Z,36.25
2023-04-07T10:53:21.766Z,37.50
2023-04-07T10:56:26.038Z,36.50
2023-04-07T10:59:29.394Z,39.00
2023-04-07T11:02:33.051Z,36.50
2023-04-07T11:05:39.024Z,38.75
2023-04-07T11:08:44.741Z,34.75
2023-04-07T11:11:49.040Z,34.00
2023-04-07T11:14:51.822Z,36.75
2023-04-07T11:18:14.374Z,35.75
2023-04-07T11:21:20.116Z,36.00
2023-04-07T11:24:38.359Z,36.25
2023-04-07T11:27:41.465Z,36.00
2023-04-07T11:30:52.942Z,36.25
2023-04-07T11:33:57.511Z,36.25
2023-04-07T11:37:21.579Z,36.00
2023-04-07T11:40:37.867Z,32.75
2023-04-07T11:43:42.793Z,36.25
2023-04-07T11:46:58.931Z,31.25
2023-04-07T11:50:01.517Z,35.25
2023-04-07T11:53:04.384Z,36.00
2023-04-07T11:56:19.004Z,32.00
2023-04-07T11:59:25.996Z,33.75
2023-04-07T12:02:33.230Z,34.50
2023-04-07T12:05:45.079Z,36.25
2023-04-07T12:08:47.662Z,35.25
2023-04-07T12:11:51.915Z,32.50
2023-04-07T12:14:54.976Z,29.25
2023-04-07T12:17:57.686Z,38.75
2023-04-07T12:21:00.128Z,33.00
2023-04-07T12:24:02.792Z,36.00
2023-04-07T12:27:05.323Z,36.00
2023-04-07T12:30:08.810Z,33.00
2023-04-07T12:33:11.445Z,31.75
2023-04-07T12:36:14.290Z,32.25
2023-04-07T12:39:17.052Z,27.00
2023-04-07T12:42:19.970Z,27.75
2023-04-07T12:45:24.661Z,34.00
2023-04-07T12:48:27.717Z,30.25
2023-04-07T12:51:31.722Z,32.00
2023-04-07T12:54:34.633Z,31.00
2023-04-07T12:57:37.674Z,30.75
2023-04-07T13:00:41.909Z,25.25
2023-04-07T13:03:44.481Z,28.00
2023-04-07T13:06:47.214Z,28.00
2023-04-07T13:09:49.730Z,29.75
2023-04-07T13:12:52.511Z,29.00
2023-04-07T13:15:55.066Z,29.75
2023-04-07T13:18:58.531Z,30.00
2023-04-07T13:22:01.137Z,29.00
2023-04-07T13:25:05.376Z,24.25
2023-04-07T13:28:07.826Z,28.75
2023-04-07T13:31:12.074Z,27.25
2023-04-07T13:34:14.838Z,29.00
2023-04-07T13:37:19.246Z,29.25
2023-04-07T13:40:21.616Z,28.00
2023-04-07T13:43:24.749Z,27.75
2023-04-07T13:46:29.261Z,30.25
2023-04-07T13:49:32.118Z,23.50
2023-04-07T13:52:35.789Z,23.75
2023-04-07T13:55:39.668Z,22.50
2023-04-07T13:58:42.111Z,26.00
2023-04-07T14:01:44.895Z,18.00
2023-04-07T14:04:47.820Z,16.50
2023-04-07T14:07:51.285Z,24.50
2023-04-07T14:10:54.280Z,21.50
2023-04-07T14:13:57.506Z,26.00
2023-04-07T14:17:00.282Z,25.25
2023-04-07T14:20:03.726Z,24.50
2023-04-07T14:23:06.671Z,19.75
2023-04-07T14:26:13.387Z,23.75
2023-04-07T14:29:15.844Z,22.25
2023-04-07T14:32:21.264Z,19.00
2023-04-07T14:35:23.803Z,22.75
2023-04-07T14:38:26.480Z,19.25
2023-04-07T14:41:30.142Z,14.50
2023-04-07T14:44:34.295Z,11.00
2023-04-07T14:47:36.741Z,11.50
2023-04-07T14:50:40.680Z,11.25
2023-04-07T14:53:43.842Z,9.00
2023-04-07T14:56:46.719Z,11.00
2023-04-07T14:59:49.277Z,11.00
2023-04-07T15:02:54.423Z,11.50
2023-04-07T15:05:57.133Z,11.25
2023-04-07T15:09:00.074Z,12.50
2023-04-07T15:12:02.610Z,9.00
2023-04-07T15:15:05.932Z,6.25
2023-04-07T15:18:08.443Z,11.75
2023-04-07T15:21:12.189Z,16.25
2023-04-07T15:24:16.335Z,11.00
2023-04-07T15:27:19.298Z,8.75
2023-04-07T15:30:21.817Z,7.00
2023-04-07T15:33:24.603Z,7.00
2023-04-07T15:36:27.640Z,7.25
2023-04-07T15:39:30.656Z,7.00
2023-04-07T15:42:41.776Z,9.25
2023-04-07T15:45:45.268Z,7.75
2023-04-07T15:48:48.237Z,8.50
2023-04-07T15:51:51.483Z,4.50
2023-04-07T15:54:55.106Z,5.50
2023-04-07T15:57:57.838Z,5.00
2023-04-07T16:01:00.678Z,7.00
2023-04-07T16:04:04.040Z,5.50
2023-04-07T16:07:06.698Z,5.00
2023-04-07T16:10:10.038Z,7.00
2023-04-07T16:13:12.458Z,7.00
2023-04-07T16:16:15.244Z,6.75
2023-04-07T16:19:17.577Z,7.00
2023-04-07T16:22:21.048Z,8.50
2023-04-07T16:25:23.632Z,6.50
2023-04-07T16:28:26.366Z,7.00
2023-04-07T16:31:28.848Z,10.75
2023-04-07T16:34:31.552Z,6.75
2023-04-07T16:37:34.230Z,8.50
2023-04-07T16:40:36.965Z,8.25
2023-04-07T16:43:39.374Z,7.50
2023-04-07T16:46:42.358Z,7.00
2023-04-07T16:49:45.273Z,5.00
2023-04-07T16:52:48.982Z,8.25
2023-04-07T16:55:51.410Z,9.00
2023-04-07T16:58:54.133Z,7.25
2023-04-07T17:01:56.816Z,11.75
2023-04-07T17:04:59.616Z,6.75
2023-04-07T17:08:02.236Z,7.00
2023-04-07T17:11:08.754Z,7.50
2023-04-07T17:14:11.400Z,9.00
2023-04-07T17:17:14.253Z,8.25
2023-04-07T17:20:17.864Z,9.50
2023-04-07T17:23:20.559Z,8.25
2023-04-07T17:26:24.465Z,8.75
2023-04-07T17:29:29.272Z,6.75
2023-04-07T17:32:31.916Z,7.50
2023-04-07T17:35:35.604Z,9.75
2023-04-07T17:38:38.008Z,6.00
2023-04-07T17:41:42.344Z,6.00
2023-04-07T17:44:44.886Z,8.75
2023-04-07T17:47:48.743Z,7.00
2023-04-07T17:50:51.366Z,7.00
2023-04-07T17:53:54.392Z,6.00
2023-04-07T17:56:58.271Z,7.50
2023-04-07T18:00:01.047Z,7.00
2023-04-07T18:03:04.262Z,6.00
2023-04-07T18:06:08.657Z,5.75
2023-04-07T18:09:11.254Z,7.50
2023-04-07T18:12:14.726Z,7.00
2023-04-07T18:15:17.486Z,6.00
2023-04-07T18:18:20.466Z,6.50
2023-04-07T18:21:22.841Z,7.00
2023-04-07T18:24:25.586Z,7.00
2023-04-07T18:27:28.605Z,8.00
2023-04-07T18:30:31.545Z,7.00
2023-04-07T18:33:34.770Z,9.25
2023-04-07T18:36:38.086Z,7.00
2023-04-07T18:39:40.517Z,7.00
2023-04-07T18:42:43.515Z,9.25
2023-04-07T18:45:47.256Z,10.75
2023-04-07T18:48:50.121Z,9.00
2023-04-07T18:51:52.941Z,9.75
2023-04-07T18:54:56.184Z,11.00
2023-04-07T18:57:59.434Z,11.50
2023-04-07T19:01:02.404Z,10.00
2023-04-07T19:04:05.419Z,12.50
2023-04-07T19:07:08.159Z,9.50
2023-04-07T19:10:10.653Z,11.75
2023-04-07T19:13:16.010Z,10.00
2023-04-07T19:16:18.563Z,13.50
2023-04-07T19:19:21.347Z,15.00
2023-04-07T19:22:25.468Z,12.75
2023-04-07T19:25:28.550Z,10.75
2023-04-07T19:28:31.593Z,8.75
2023-04-07T19:31:34.999Z,11.00
2023-04-07T19:34:37.835Z,9.00
2023-04-07T19:37:41.139Z,11.75
2023-04-07T19:40:43.578Z,10.00
2023-04-07T19:43:47.887Z,9.75
2023-04-07T19:46:50.509Z,10.00
2023-04-07T19:49:53.725Z,7.25
2023-04-07T19:52:56.553Z,10.00
2023-04-07T19:56:02.266Z,8.75
2023-04-07T19:59:04.755Z,11.50
2023-04-07T20:02:08.014Z,12.25
2023-04-07T20:05:11.381Z,10.00
2023-04-07T20:08:14.280Z,9.25
2023-04-07T20:11:16.892Z,8.75
2023-04-07T20:14:19.880Z,16.25
2023-04-07T20:17:22.283Z,13.50
2023-04-07T20:20:25.062Z,17.25
2023-04-07T20:23:27.692Z,17.75
2023-04-07T20:26:31.199Z,17.00
2023-04-07T20:29:33.608Z,14.00
2023-04-07T20:32:36.408Z,16.25
2023-04-07T20:35:39.037Z,16.50
2023-04-07T20:38:44.708Z,16.00
2023-04-07T20:41:47.242Z,12.75
2023-04-07T20:44:50.099Z,19.50
2023-04-07T20:47:52.572Z,16.00
2023-04-07T20:50:55.284Z,12.50
2023-04-07T20:53:57.743Z,15.00
2023-04-07T20:57:01.126Z,16.50
2023-04-07T21:00:05.508Z,15.00
2023-04-07T21:03:08.352Z,11.50
2023-04-07T21:06:11.598Z,14.50
2023-04-07T21:09:14.241Z,13.25
2023-04-07T21:12:16.846Z,12.00
2023-04-07T21:15:21.955Z,9.00
2023-04-07T21:18:24.432Z,13.00
2023-04-07T21:21:27.872Z,11.50
2023-04-07T21:24:30.287Z,11.50
2023-04-07T21:27:34.195Z,12.25
2023-04-07T21:30:40.488Z,10.50
2023-04-07T21:33:43.085Z,11.00
2023-04-07T21:36:45.531Z,16.00
2023-04-07T21:39:48.253Z,14.00
2023-04-07T21:42:52.195Z,10.50
2023-04-07T21:45:55.157Z,11.00
2023-04-07T21:48:58.716Z,14.00
2023-04-07T21:52:01.439Z,15.00
2023-04-07T21:55:04.232Z,13.25
2023-04-07T21:58:06.967Z,12.25
2023-04-07T22:01:09.789Z,12.50
2023-04-07T22:04:13.946Z,14.25
2023-04-07T22:07:16.582Z,15.00
2023-04-07T22:10:19.252Z,18.33
2023-04-07T22:13:21.652Z,15.33
2023-04-07T22:16:24.427Z,16.00
2023-04-07T22:19:27.296Z,9.67
2023-04-07T22:22:29.969Z,16.00
2023-04-07T22:25:32.384Z,16.33
2023-04-07T22:28:35.286Z,12.00
2023-04-07T22:31:37.791Z,11.00
2023-04-07T22:34:40.527Z,14.00
2023-04-07T22:37:42.950Z,11.00
2023-04-07T22:40:46.253Z,16.33
2023-04-07T22:43:48.721Z,13.33
2023-04-07T22:46:51.831Z,15.67
2023-04-07T22:49:54.379Z,16.00
2023-04-07T22:52:57.191Z,15.33
2023-04-07T22:55:59.630Z,14.67
2023-04-07T22:59:05.901Z,16.33
2023-04-07T23:02:08.518Z,15.00
2023-04-07T23:05:11.494Z,16.00
2023-04-07T23:08:14.038Z,18.33
2023-04-07T23:11:17.399Z,15.67
2023-04-07T23:14:20.080Z,19.00
2023-04-07T23:17:23.389Z,17.33
2023-04-07T23:20:25.792Z,14.67
2023-04-07T23:23:28.443Z,13.33
2023-04-07T23:26:31.870Z,15.33
2023-04-07T23:29:34.619Z,13.25
2023-04-07T23:32:37.006Z,16.50
2023-04-07T23:35:39.873Z,12.50
2023-04-07T23:38:42.518Z,15.00
2023-04-07T23:41:45.174Z,15.00
2023-04-07T23:44:47.566Z,15.00
2023-04-07T23:47:50.261Z,18.67
2023-04-07T23:50:53.498Z,13.25
2023-04-07T23:53:56.340Z,18.00
2023-04-07T23:56:58.747Z,17.67
